Pagina principale
METAR-TAF:

METAR-TAF

Aeroporti :

Aeroporto di Gran Canaria

Gran Canaria, Spagna

latitudine: 27-56N, longitudine: 015-23W, altezza: 23 m

Osservazione

Il bollettino è stato emesso 29 minuti fa, alle 14:00 UTC
Vento 7 kt da est/sud-est, variando fra est e sud/sud-est
Temperature 21°C
Umidità 60%
Pressione 1018 hPa
Visibilità 10 km o più
Poco nuvoloso ad un'altezza di 3500 ft
Nuvoloso ad un'altezza di 4000 ft

METAR: GCLP 241400Z 12007KT 080V160 9999 FEW035 BKN040 21/13 Q1018 WS ALL RWY NOSIG

Ora: 15:29 (14:29 UTC)

Previsione

Il bollettino è stato emesso 6 ore e 29 minuti fa, alle 08:00 UTC
Previsione valida dal 24 alle 09 UTC al 25 alle 09 UTC
Vento 15 kt da nord
Visibilità 10 km o più
Nubi sparse ad un'altezza di 3500 ft
Probabilità 40% :
Temporaneamente
dal 24 alle 12 UTC al 24 alle 17 UTC
Vento 6 kt da sud

TAF: GCLP 240800Z 2409/2509 01015KT 9999 SCT035 TX24/2414Z TN18/2505Z PROB40 TEMPO 2412/2417 18006KT

Osservazioni e previsioni meteorologiche di più di 4000 aeroporti (messaggi METAR e TAF).

Le stazioni disponibili sono rappresentate dai dischi gialli e rossi sulla carta.

Puntare il mouse per vedere il nome della stazione.

Clicca sopra per visualizzare le osservazioni e previsioni meteorologiche.

Per cambiare la mappa : fare clic sui pulsanti verdi con una croce nera per ingrandire, il pulsante verde con un trattino per diminuire, o sulla freccia verde per le mappe adiacenti.


METAR-TAF: